sensor_id;sensor_type;location;lat;lon;timestamp;pressure;altitude;pressure_sealevel;temperature;humidity
46392;BME280;32098;49.448;7.904;2022-11-15T00:02:22;97824.63;;;9.56;85.50
46392;BME280;32098;49.448;7.904;2022-11-15T00:05:08;97822.19;;;9.54;85.28
46392;BME280;32098;49.448;7.904;2022-11-15T00:07:54;97797.75;;;9.46;84.92
46392;BME280;32098;49.448;7.904;2022-11-15T00:10:40;97814.31;;;9.59;84.67
46392;BME280;32098;49.448;7.904;2022-11-15T00:13:26;97824.13;;;9.70;84.78
46392;BME280;32098;49.448;7.904;2022-11-15T00:16:13;97807.25;;;9.53;84.86
46392;BME280;32098;49.448;7.904;2022-11-15T00:18:59;97786.75;;;9.42;84.76
46392;BME280;32098;49.448;7.904;2022-11-15T00:21:44;97822.75;;;9.68;84.24
46392;BME280;32098;49.448;7.904;2022-11-15T00:24:30;97810.47;;;9.67;84.06
46392;BME280;32098;49.448;7.904;2022-11-15T00:27:15;97815.22;;;9.76;84.07
46392;BME280;32098;49.448;7.904;2022-11-15T00:30:01;97811.88;;;9.69;84.00
46392;BME280;32098;49.448;7.904;2022-11-15T00:32:46;97772.16;;;9.45;84.03
46392;BME280;32098;49.448;7.904;2022-11-15T00:35:33;97805.84;;;9.62;83.96
46392;BME280;32098;49.448;7.904;2022-11-15T00:38:20;97826.25;;;9.80;83.51
46392;BME280;32098;49.448;7.904;2022-11-15T00:41:07;97821.03;;;9.85;83.47
46392;BME280;32098;49.448;7.904;2022-11-15T00:43:54;97816.56;;;9.91;83.51
46392;BME280;32098;49.448;7.904;2022-11-15T00:46:39;97782.41;;;9.76;83.23
46392;BME280;32098;49.448;7.904;2022-11-15T00:49:24;97776.59;;;9.79;82.80
46392;BME280;32098;49.448;7.904;2022-11-15T00:52:09;97786.34;;;9.85;82.96
46392;BME280;32098;49.448;7.904;2022-11-15T00:54:55;97784.16;;;9.82;82.96
46392;BME280;32098;49.448;7.904;2022-11-15T00:57:43;97778.91;;;9.75;83.18
46392;BME280;32098;49.448;7.904;2022-11-15T01:00:29;97807.78;;;9.90;83.31
46392;BME280;32098;49.448;7.904;2022-11-15T01:03:17;97787.38;;;9.84;83.21
46392;BME280;32098;49.448;7.904;2022-11-15T01:06:06;97797.91;;;9.91;83.51
46392;BME280;32098;49.448;7.904;2022-11-15T01:08:54;97789.59;;;9.87;83.59
46392;BME280;32098;49.448;7.904;2022-11-15T01:11:40;97798.47;;;9.93;83.62
46392;BME280;32098;49.448;7.904;2022-11-15T01:14:25;97794.34;;;9.85;83.51
46392;BME280;32098;49.448;7.904;2022-11-15T01:17:13;97780.91;;;9.80;83.40
46392;BME280;32098;49.448;7.904;2022-11-15T01:19:58;97792.00;;;9.88;83.38
46392;BME280;32098;49.448;7.904;2022-11-15T01:22:45;97781.59;;;9.87;82.72
46392;BME280;32098;49.448;7.904;2022-11-15T01:25:31;97774.88;;;9.84;82.88
46392;BME280;32098;49.448;7.904;2022-11-15T01:28:18;97777.97;;;9.93;82.55
46392;BME280;32098;49.448;7.904;2022-11-15T01:31:09;97792.06;;;10.05;82.22
46392;BME280;32098;49.448;7.904;2022-11-15T01:33:57;97764.06;;;9.91;82.32
46392;BME280;32098;49.448;7.904;2022-11-15T01:36:42;97752.34;;;9.80;82.37
46392;BME280;32098;49.448;7.904;2022-11-15T01:39:29;97784.22;;;9.99;82.15
46392;BME280;32098;49.448;7.904;2022-11-15T01:42:14;97768.56;;;9.91;82.16
46392;BME280;32098;49.448;7.904;2022-11-15T01:45:00;97770.78;;;9.94;82.03
46392;BME280;32098;49.448;7.904;2022-11-15T01:47:49;97780.25;;;10.01;81.88
46392;BME280;32098;49.448;7.904;2022-11-15T01:50:37;97771.78;;;10.04;81.74
46392;BME280;32098;49.448;7.904;2022-11-15T01:53:25;97770.41;;;10.02;81.51
46392;BME280;32098;49.448;7.904;2022-11-15T01:56:17;97773.88;;;10.14;81.19
46392;BME280;32098;49.448;7.904;2022-11-15T01:59:06;97770.84;;;10.10;81.26
46392;BME280;32098;49.448;7.904;2022-11-15T02:04:43;97760.28;;;10.15;80.98
46392;BME280;32098;49.448;7.904;2022-11-15T02:07:31;97758.00;;;10.07;81.49
46392;BME280;32098;49.448;7.904;2022-11-15T02:10:19;97742.09;;;10.12;81.10
46392;BME280;32098;49.448;7.904;2022-11-15T02:13:05;97749.38;;;10.05;81.31
46392;BME280;32098;49.448;7.904;2022-11-15T02:31:51;97725.38;;;10.05;81.33
46392;BME280;32098;49.448;7.904;2022-11-15T02:34:55;97716.81;;;10.03;81.25
46392;BME280;32098;49.448;7.904;2022-11-15T02:37:59;97708.59;;;10.05;81.28
46392;BME280;32098;49.448;7.904;2022-11-15T02:41:01;97713.22;;;10.09;81.31
46392;BME280;32098;49.448;7.904;2022-11-15T02:43:53;97697.13;;;9.93;81.20
46392;BME280;32098;49.448;7.904;2022-11-15T02:46:58;97707.19;;;10.02;81.61
46392;BME280;32098;49.448;7.904;2022-11-15T02:50:03;97706.13;;;10.03;81.84
46392;BME280;32098;49.448;7.904;2022-11-15T02:52:51;97702.19;;;10.06;81.50
46392;BME280;32098;49.448;7.904;2022-11-15T02:56:03;97707.31;;;10.07;81.43
46392;BME280;32098;49.448;7.904;2022-11-15T02:59:11;97700.44;;;10.11;81.33
46392;BME280;32098;49.448;7.904;2022-11-15T03:11:12;97695.47;;;10.03;82.03
46392;BME280;32098;49.448;7.904;2022-11-15T03:14:07;97708.34;;;10.06;81.66
46392;BME280;32098;49.448;7.904;2022-11-15T03:20:05;97705.22;;;10.09;81.90
46392;BME280;32098;49.448;7.904;2022-11-15T03:22:51;97706.81;;;10.10;82.05
46392;BME280;32098;49.448;7.904;2022-11-15T03:25:41;97707.41;;;10.12;81.92
46392;BME280;32098;49.448;7.904;2022-11-15T03:28:33;97703.47;;;10.03;82.31
46392;BME280;32098;49.448;7.904;2022-11-15T03:31:21;97678.44;;;9.93;82.62
46392;BME280;32098;49.448;7.904;2022-11-15T03:34:41;97702.19;;;10.06;82.48
46392;BME280;32098;49.448;7.904;2022-11-15T03:37:37;97712.41;;;10.09;82.50
46392;BME280;32098;49.448;7.904;2022-11-15T03:40:39;97706.81;;;10.10;82.62
46392;BME280;32098;49.448;7.904;2022-11-15T03:46:46;97700.09;;;10.08;82.91
46392;BME280;32098;49.448;7.904;2022-11-15T03:49:34;97708.78;;;10.03;83.04
46392;BME280;32098;49.448;7.904;2022-11-15T03:52:21;97700.47;;;10.00;83.30
46392;BME280;32098;49.448;7.904;2022-11-15T03:55:10;97702.44;;;10.04;83.27
46392;BME280;32098;49.448;7.904;2022-11-15T03:57:58;97699.09;;;9.97;83.62
46392;BME280;32098;49.448;7.904;2022-11-15T04:00:44;97710.25;;;9.94;83.78
46392;BME280;32098;49.448;7.904;2022-11-15T04:03:29;97697.72;;;9.95;83.43
46392;BME280;32098;49.448;7.904;2022-11-15T04:06:14;97699.09;;;9.97;83.65
46392;BME280;32098;49.448;7.904;2022-11-15T04:08:59;97697.00;;;9.99;83.73
46392;BME280;32098;49.448;7.904;2022-11-15T04:11:44;97699.75;;;10.04;83.53
46392;BME280;32098;49.448;7.904;2022-11-15T04:14:29;97687.53;;;9.92;83.73
46392;BME280;32098;49.448;7.904;2022-11-15T04:17:14;97692.47;;;10.00;83.72
46392;BME280;32098;49.448;7.904;2022-11-15T04:19:59;97702.34;;;9.99;83.86
46392;BME280;32098;49.448;7.904;2022-11-15T04:23:06;97701.25;;;10.00;83.70
46392;BME280;32098;49.448;7.904;2022-11-15T04:26:19;97695.06;;;9.95;84.18
46392;BME280;32098;49.448;7.904;2022-11-15T04:29:05;97689.72;;;9.95;83.99
46392;BME280;32098;49.448;7.904;2022-11-15T04:32:09;97677.31;;;9.88;84.73
46392;BME280;32098;49.448;7.904;2022-11-15T04:34:54;97682.91;;;9.87;84.70
46392;BME280;32098;49.448;7.904;2022-11-15T04:37:39;97683.47;;;9.89;84.61
46392;BME280;32098;49.448;7.904;2022-11-15T04:40:32;97678.78;;;9.96;84.30
46392;BME280;32098;49.448;7.904;2022-11-15T04:43:17;97671.25;;;9.93;84.55
46392;BME280;32098;49.448;7.904;2022-11-15T04:46:02;97659.94;;;9.86;84.95
46392;BME280;32098;49.448;7.904;2022-11-15T04:48:47;97658.34;;;9.85;84.88
46392;BME280;32098;49.448;7.904;2022-11-15T04:51:33;97659.84;;;9.81;85.15
46392;BME280;32098;49.448;7.904;2022-11-15T04:54:18;97648.81;;;9.89;84.53
46392;BME280;32098;49.448;7.904;2022-11-15T04:57:03;97661.88;;;9.91;84.45
46392;BME280;32098;49.448;7.904;2022-11-15T04:59:48;97668.50;;;9.88;84.32
46392;BME280;32098;49.448;7.904;2022-11-15T05:02:33;97670.03;;;9.84;84.34
46392;BME280;32098;49.448;7.904;2022-11-15T05:05:37;97672.47;;;9.85;84.81
46392;BME280;32098;49.448;7.904;2022-11-15T05:08:22;97667.38;;;9.84;84.70
46392;BME280;32098;49.448;7.904;2022-11-15T05:11:07;97665.19;;;9.81;84.84
46392;BME280;32098;49.448;7.904;2022-11-15T05:13:53;97666.91;;;9.87;84.42
46392;BME280;32098;49.448;7.904;2022-11-15T05:16:38;97654.13;;;9.89;84.21
46392;BME280;32098;49.448;7.904;2022-11-15T05:19:23;97657.13;;;9.93;84.00
46392;BME280;32098;49.448;7.904;2022-11-15T05:22:08;97658.00;;;9.81;83.88
46392;BME280;32098;49.448;7.904;2022-11-15T05:24:53;97661.56;;;9.87;83.70
46392;BME280;32098;49.448;7.904;2022-11-15T05:27:38;97654.38;;;9.88;83.44
46392;BME280;32098;49.448;7.904;2022-11-15T05:30:23;97653.66;;;9.92;83.53
46392;BME280;32098;49.448;7.904;2022-11-15T05:33:08;97653.66;;;9.92;83.15
46392;BME280;32098;49.448;7.904;2022-11-15T05:36:00;97655.66;;;9.85;83.26
46392;BME280;32098;49.448;7.904;2022-11-15T05:38:47;97648.94;;;9.82;83.01
46392;BME280;32098;49.448;7.904;2022-11-15T05:41:37;97654.50;;;9.81;82.82
46392;BME280;32098;49.448;7.904;2022-11-15T05:44:24;97652.22;;;9.73;83.25
46392;BME280;32098;49.448;7.904;2022-11-15T05:47:15;97650.06;;;9.70;83.07
46392;BME280;32098;49.448;7.904;2022-11-15T05:50:02;97643.38;;;10.45;95.03
46392;BME280;32098;49.448;7.904;2022-11-15T05:52:47;97648.25;;;10.82;85.41
46392;BME280;32098;49.448;7.904;2022-11-15T05:55:33;97635.94;;;11.19;80.56
46392;BME280;32098;49.448;7.904;2022-11-15T05:58:20;97635.72;;;11.42;78.28
46392;BME280;32098;49.448;7.904;2022-11-15T06:01:05;97629.31;;;11.65;77.84
46392;BME280;32098;49.448;7.904;2022-11-15T06:03:50;97630.38;;;11.91;76.40
46392;BME280;32098;49.448;7.904;2022-11-15T06:06:35;97634.31;;;12.10;76.21
46392;BME280;32098;49.448;7.904;2022-11-15T06:09:20;97636.63;;;11.74;72.68
46392;BME280;32098;49.448;7.904;2022-11-15T06:12:06;97631.22;;;11.26;74.01
46392;BME280;32098;49.448;7.904;2022-11-15T06:14:50;97636.41;;;10.94;75.70
46392;BME280;32098;49.448;7.904;2022-11-15T06:17:35;97647.44;;;10.65;77.17
46392;BME280;32098;49.448;7.904;2022-11-15T06:20:20;97643.47;;;10.50;78.01
46392;BME280;32098;49.448;7.904;2022-11-15T06:23:05;97647.53;;;10.36;78.33
46392;BME280;32098;49.448;7.904;2022-11-15T06:25:50;97642.88;;;10.15;78.60
46392;BME280;32098;49.448;7.904;2022-11-15T06:28:36;97643.09;;;9.97;78.62
46392;BME280;32098;49.448;7.904;2022-11-15T06:31:21;97641.94;;;9.93;79.03
46392;BME280;32098;49.448;7.904;2022-11-15T06:34:06;97641.84;;;9.88;79.54
46392;BME280;32098;49.448;7.904;2022-11-15T06:36:51;97652.31;;;9.78;80.13
46392;BME280;32098;49.448;7.904;2022-11-15T06:39:36;97649.13;;;9.64;80.54
46392;BME280;32098;49.448;7.904;2022-11-15T06:42:21;97651.13;;;9.57;81.00
46392;BME280;32098;49.448;7.904;2022-11-15T06:45:08;97652.69;;;9.42;81.88
46392;BME280;32098;49.448;7.904;2022-11-15T06:47:54;97660.44;;;9.43;82.05
46392;BME280;32098;49.448;7.904;2022-11-15T06:50:39;97663.34;;;9.30;82.86
46392;BME280;32098;49.448;7.904;2022-11-15T06:53:25;97667.28;;;9.28;83.40
46392;BME280;32098;49.448;7.904;2022-11-15T06:56:10;97670.44;;;9.25;83.76
46392;BME280;32098;49.448;7.904;2022-11-15T06:58:55;97664.88;;;9.26;83.97
46392;BME280;32098;49.448;7.904;2022-11-15T07:01:40;97668.81;;;9.23;83.83
46392;BME280;32098;49.448;7.904;2022-11-15T07:04:25;97664.50;;;9.22;83.91
46392;BME280;32098;49.448;7.904;2022-11-15T07:07:10;97662.09;;;9.21;84.52
46392;BME280;32098;49.448;7.904;2022-11-15T07:09:55;97666.63;;;9.20;84.46
46392;BME280;32098;49.448;7.904;2022-11-15T07:12:40;97663.63;;;9.17;84.76
46392;BME280;32098;49.448;7.904;2022-11-15T07:15:26;97659.78;;;9.13;84.73
46392;BME280;32098;49.448;7.904;2022-11-15T07:18:11;97658.88;;;9.07;84.98
46392;BME280;32098;49.448;7.904;2022-11-15T07:21:00;97667.44;;;9.09;85.07
46392;BME280;32098;49.448;7.904;2022-11-15T07:23:45;97664.28;;;9.12;85.49
46392;BME280;32098;49.448;7.904;2022-11-15T07:26:30;97670.44;;;9.13;85.92
46392;BME280;32098;49.448;7.904;2022-11-15T07:29:15;97659.31;;;9.16;85.52
46392;BME280;32098;49.448;7.904;2022-11-15T07:32:00;97666.97;;;9.12;85.70
46392;BME280;32098;49.448;7.904;2022-11-15T07:34:45;97662.44;;;9.13;86.00
46392;BME280;32098;49.448;7.904;2022-11-15T07:37:31;97665.38;;;9.11;86.09
46392;BME280;32098;49.448;7.904;2022-11-15T07:40:16;97659.47;;;9.09;86.34
46392;BME280;32098;49.448;7.904;2022-11-15T07:43:04;97658.97;;;9.12;86.18
46392;BME280;32098;49.448;7.904;2022-11-15T07:45:50;97667.06;;;9.17;85.80
46392;BME280;32098;49.448;7.904;2022-11-15T07:48:42;97660.84;;;9.12;86.12
46392;BME280;32098;49.448;7.904;2022-11-15T07:51:29;97656.31;;;9.12;85.94
46392;BME280;32098;49.448;7.904;2022-11-15T07:54:14;97662.25;;;9.14;86.18
46392;BME280;32098;49.448;7.904;2022-11-15T07:56:59;97663.84;;;9.15;86.35
46392;BME280;32098;49.448;7.904;2022-11-15T07:59:51;97663.97;;;9.09;86.77
46392;BME280;32098;49.448;7.904;2022-11-15T08:02:37;97656.31;;;9.12;86.84
46392;BME280;32098;49.448;7.904;2022-11-15T08:05:22;97660.03;;;9.11;87.25
46392;BME280;32098;49.448;7.904;2022-11-15T08:08:11;97662.13;;;9.09;87.25
46392;BME280;32098;49.448;7.904;2022-11-15T08:11:00;97664.28;;;9.12;87.50
46392;BME280;32098;49.448;7.904;2022-11-15T08:13:45;97652.72;;;9.18;87.47
46392;BME280;32098;49.448;7.904;2022-11-15T08:16:30;97649.91;;;9.25;87.83
46392;BME280;32098;49.448;7.904;2022-11-15T08:19:15;97643.41;;;9.33;87.42
46392;BME280;32098;49.448;7.904;2022-11-15T08:22:00;97650.38;;;9.34;87.19
46392;BME280;32098;49.448;7.904;2022-11-15T08:24:45;97650.94;;;9.36;87.37
46392;BME280;32098;49.448;7.904;2022-11-15T08:27:30;97655.56;;;9.40;87.72
46392;BME280;32098;49.448;7.904;2022-11-15T08:30:15;97650.44;;;9.50;87.33
46392;BME280;32098;49.448;7.904;2022-11-15T08:33:00;97649.97;;;9.53;87.44
46392;BME280;32098;49.448;7.904;2022-11-15T08:35:45;97645.34;;;9.49;87.58
46392;BME280;32098;49.448;7.904;2022-11-15T08:38:30;97642.78;;;9.54;87.17
46392;BME280;32098;49.448;7.904;2022-11-15T08:41:32;97632.03;;;9.49;86.81
46392;BME280;32098;49.448;7.904;2022-11-15T08:44:18;97608.88;;;9.38;86.84
46392;BME280;32098;49.448;7.904;2022-11-15T08:47:03;97649.34;;;9.63;86.97
46392;BME280;32098;49.448;7.904;2022-11-15T08:49:48;97643.09;;;9.69;86.70
46392;BME280;32098;49.448;7.904;2022-11-15T08:52:33;97645.75;;;9.69;86.72
46392;BME280;32098;49.448;7.904;2022-11-15T08:55:18;97633.22;;;9.69;86.77
46392;BME280;32098;49.448;7.904;2022-11-15T08:58:08;97631.28;;;9.65;86.41
46392;BME280;32098;49.448;7.904;2022-11-15T09:00:53;97630.31;;;9.71;86.28
46392;BME280;32098;49.448;7.904;2022-11-15T09:03:40;97631.22;;;9.76;86.27
46392;BME280;32098;49.448;7.904;2022-11-15T09:06:25;97617.81;;;9.71;86.70
46392;BME280;32098;49.448;7.904;2022-11-15T09:09:10;97627.28;;;9.79;86.70
46392;BME280;32098;49.448;7.904;2022-11-15T09:11:55;97618.72;;;9.77;86.30
46392;BME280;32098;49.448;7.904;2022-11-15T09:14:46;97616.13;;;9.82;86.19
46392;BME280;32098;49.448;7.904;2022-11-15T09:17:31;97621.41;;;9.94;85.76
46392;BME280;32098;49.448;7.904;2022-11-15T09:20:16;97617.44;;;9.96;85.52
46392;BME280;32098;49.448;7.904;2022-11-15T09:23:02;97613.84;;;10.02;85.15
46392;BME280;32098;49.448;7.904;2022-11-15T09:25:48;97614.63;;;10.03;85.09
46392;BME280;32098;49.448;7.904;2022-11-15T09:28:33;97614.50;;;10.09;84.74
46392;BME280;32098;49.448;7.904;2022-11-15T09:31:20;97610.31;;;10.13;84.98
46392;BME280;32098;49.448;7.904;2022-11-15T09:34:06;97608.53;;;10.19;84.84
46392;BME280;32098;49.448;7.904;2022-11-15T09:36:51;97608.88;;;10.22;84.69
46392;BME280;32098;49.448;7.904;2022-11-15T09:39:36;97615.59;;;10.25;84.56
46392;BME280;32098;49.448;7.904;2022-11-15T09:42:47;97603.09;;;10.30;84.29
46392;BME280;32098;49.448;7.904;2022-11-15T09:45:57;97607.00;;;10.39;84.03
46392;BME280;32098;49.448;7.904;2022-11-15T09:49:03;97603.94;;;10.47;84.18
46392;BME280;32098;49.448;7.904;2022-11-15T09:51:41;97608.84;;;10.56;84.11
46392;BME280;32098;49.448;7.904;2022-11-15T10:00:20;97604.25;;;10.68;81.81
46392;BME280;32098;49.448;7.904;2022-11-15T10:03:15;97600.66;;;10.79;81.69
46392;BME280;32098;49.448;7.904;2022-11-15T10:05:47;97602.28;;;10.80;81.42
46392;BME280;32098;49.448;7.904;2022-11-15T10:11:02;97595.44;;;10.89;81.09
46392;BME280;32098;49.448;7.904;2022-11-15T10:13:52;97587.00;;;10.97;80.53
46392;BME280;32098;49.448;7.904;2022-11-15T10:19:21;97581.41;;;10.98;80.04
46392;BME280;32098;49.448;7.904;2022-11-15T10:24:47;97574.53;;;11.02;80.22
46392;BME280;32098;49.448;7.904;2022-11-15T10:27:18;97573.66;;;10.97;80.48
46392;BME280;32098;49.448;7.904;2022-11-15T10:29:50;97566.25;;;11.04;80.12
46392;BME280;32098;49.448;7.904;2022-11-15T10:32:18;97559.41;;;11.13;80.04
46392;BME280;32098;49.448;7.904;2022-11-15T10:34:47;97550.97;;;11.21;79.78
46392;BME280;32098;49.448;7.904;2022-11-15T10:37:14;97537.75;;;11.31;79.48
46392;BME280;32098;49.448;7.904;2022-11-15T10:39:41;97536.81;;;11.42;78.19
46392;BME280;32098;49.448;7.904;2022-11-15T10:42:28;97526.09;;;11.69;77.39
46392;BME280;32098;49.448;7.904;2022-11-15T10:44:55;97516.09;;;11.86;76.64
46392;BME280;32098;49.448;7.904;2022-11-15T10:47:27;97508.88;;;11.87;75.27
46392;BME280;32098;49.448;7.904;2022-11-15T10:50:06;97503.56;;;11.92;74.83
46392;BME280;32098;49.448;7.904;2022-11-15T10:52:35;97502.56;;;11.98;74.61
46392;BME280;32098;49.448;7.904;2022-11-15T10:55:22;97503.13;;;12.05;74.66
46392;BME280;32098;49.448;7.904;2022-11-15T10:57:53;97494.34;;;12.09;73.84
46392;BME280;32098;49.448;7.904;2022-11-15T11:05:48;97492.34;;;11.95;73.75
46392;BME280;32098;49.448;7.904;2022-11-15T11:10:55;97485.88;;;11.91;73.69
46392;BME280;32098;49.448;7.904;2022-11-15T11:13:39;97475.19;;;11.91;72.89
46392;BME280;32098;49.448;7.904;2022-11-15T11:27:36;97469.59;;;11.60;72.11
46392;BME280;32098;49.448;7.904;2022-11-15T11:35:47;97470.47;;;11.71;72.00
46392;BME280;32098;49.448;7.904;2022-11-15T11:38:38;97459.59;;;11.77;71.64
46392;BME280;32098;49.448;7.904;2022-11-15T11:44:33;97462.00;;;11.79;70.33
46392;BME280;32098;49.448;7.904;2022-11-15T11:47:14;97443.34;;;11.89;69.48
46392;BME280;32098;49.448;7.904;2022-11-15T11:49:51;97438.84;;;11.95;69.25
46392;BME280;32098;49.448;7.904;2022-11-15T11:52:33;97437.84;;;12.06;68.18
46392;BME280;32098;49.448;7.904;2022-11-15T11:55:24;97440.00;;;12.09;67.95
46392;BME280;32098;49.448;7.904;2022-11-15T12:01:10;97431.66;;;12.00;67.16
46392;BME280;32098;49.448;7.904;2022-11-15T12:03:44;97418.88;;;12.12;67.54
46392;BME280;32098;49.448;7.904;2022-11-15T12:08:58;97427.97;;;12.11;67.18
46392;BME280;32098;49.448;7.904;2022-11-15T12:11:49;97408.44;;;12.11;66.73
46392;BME280;32098;49.448;7.904;2022-11-15T12:16:55;97411.16;;;12.21;66.98
46392;BME280;32098;49.448;7.904;2022-11-15T12:19:21;97399.94;;;12.24;66.60
46392;BME280;32098;49.448;7.904;2022-11-15T12:22:04;97400.41;;;12.11;66.31
46392;BME280;32098;49.448;7.904;2022-11-15T12:24:41;97392.69;;;12.19;66.44
46392;BME280;32098;49.448;7.904;2022-11-15T12:27:49;97385.25;;;12.31;66.14
46392;BME280;32098;49.448;7.904;2022-11-15T12:30:20;97386.06;;;12.32;66.45
46392;BME280;32098;49.448;7.904;2022-11-15T12:32:58;97380.38;;;12.23;66.98
46392;BME280;32098;49.448;7.904;2022-11-15T12:35:35;97373.06;;;12.04;66.69
46392;BME280;32098;49.448;7.904;2022-11-15T12:38:02;97377.16;;;12.21;67.02
46392;BME280;32098;49.448;7.904;2022-11-15T12:43:00;97365.63;;;12.16;67.21
46392;BME280;32098;49.448;7.904;2022-11-15T12:45:32;97367.81;;;12.24;67.11
46392;BME280;32098;49.448;7.904;2022-11-15T12:56:09;97340.28;;;12.33;66.06
46392;BME280;32098;49.448;7.904;2022-11-15T12:58:44;97346.22;;;12.40;67.02
46392;BME280;32098;49.448;7.904;2022-11-15T13:15:00;97324.03;;;12.50;67.08
46392;BME280;32098;49.448;7.904;2022-11-15T13:17:54;97317.06;;;12.49;66.55
46392;BME280;32098;49.448;7.904;2022-11-15T13:20:25;97316.56;;;12.52;66.48
46392;BME280;32098;49.448;7.904;2022-11-15T13:26:09;97303.59;;;12.34;66.32
46392;BME280;32098;49.448;7.904;2022-11-15T13:28:47;97307.38;;;12.38;66.24
46392;BME280;32098;49.448;7.904;2022-11-15T13:31:36;97293.44;;;12.41;66.07
46392;BME280;32098;49.448;7.904;2022-11-15T13:37:02;97284.53;;;12.10;66.91
46392;BME280;32098;49.448;7.904;2022-11-15T13:39:31;97281.84;;;12.10;67.03
46392;BME280;32098;49.448;7.904;2022-11-15T13:41:58;97284.78;;;12.09;66.93
46392;BME280;32098;49.448;7.904;2022-11-15T13:44:27;97275.19;;;12.18;66.38
46392;BME280;32098;49.448;7.904;2022-11-15T13:47:13;97277.00;;;12.02;66.54
46392;BME280;32098;49.448;7.904;2022-11-15T13:49:40;97265.00;;;12.15;66.86
46392;BME280;32098;49.448;7.904;2022-11-15T13:52:11;97257.47;;;12.07;67.33
46392;BME280;32098;49.448;7.904;2022-11-15T13:54:47;97256.09;;;11.94;67.47
46392;BME280;32098;49.448;7.904;2022-11-15T13:57:22;97241.63;;;11.90;67.87
46392;BME280;32098;49.448;7.904;2022-11-15T13:59:54;97246.47;;;11.98;67.46
46392;BME280;32098;49.448;7.904;2022-11-15T14:04:56;97226.41;;;12.01;67.51
46392;BME280;32098;49.448;7.904;2022-11-15T14:07:25;97229.63;;;11.98;68.35
46392;BME280;32098;49.448;7.904;2022-11-15T14:09:52;97232.81;;;11.95;68.29
46392;BME280;32098;49.448;7.904;2022-11-15T14:14:52;97220.28;;;12.05;67.71
46392;BME280;32098;49.448;7.904;2022-11-15T14:17:21;97206.31;;;11.98;68.46
46392;BME280;32098;49.448;7.904;2022-11-15T14:19:58;97207.63;;;11.91;68.07
46392;BME280;32098;49.448;7.904;2022-11-15T14:22:27;97205.75;;;11.86;68.16
46392;BME280;32098;49.448;7.904;2022-11-15T14:25:57;97210.88;;;11.93;68.18
46392;BME280;32098;49.448;7.904;2022-11-15T14:30:53;97198.03;;;11.95;68.50
46392;BME280;32098;49.448;7.904;2022-11-15T14:33:27;97192.94;;;11.93;68.53
46392;BME280;32098;49.448;7.904;2022-11-15T14:36:02;97194.28;;;11.96;68.35
46392;BME280;32098;49.448;7.904;2022-11-15T14:38:29;97196.94;;;11.91;68.43
46392;BME280;32098;49.448;7.904;2022-11-15T14:40:56;97189.72;;;11.91;68.38
46392;BME280;32098;49.448;7.904;2022-11-15T14:43:24;97181.16;;;11.94;68.55
46392;BME280;32098;49.448;7.904;2022-11-15T14:45:50;97179.06;;;12.01;68.46
46392;BME280;32098;49.448;7.904;2022-11-15T14:48:17;97173.97;;;12.00;68.17
46392;BME280;32098;49.448;7.904;2022-11-15T14:50:44;97174.97;;;11.84;68.12
46392;BME280;32098;49.448;7.904;2022-11-15T14:53:17;97172.84;;;11.86;68.51
46392;BME280;32098;49.448;7.904;2022-11-15T14:55:45;97179.81;;;11.87;68.40
46392;BME280;32098;49.448;7.904;2022-11-15T14:58:12;97162.91;;;11.71;68.12
46392;BME280;32098;49.448;7.904;2022-11-15T15:00:40;97172.03;;;11.75;68.19
46392;BME280;32098;49.448;7.904;2022-11-15T15:03:07;97178.41;;;11.69;68.52
46392;BME280;32098;49.448;7.904;2022-11-15T15:08:01;97174.94;;;11.73;68.40
46392;BME280;32098;49.448;7.904;2022-11-15T15:10:35;97163.19;;;11.69;68.38
46392;BME280;32098;49.448;7.904;2022-11-15T15:13:12;97147.63;;;11.61;68.39
46392;BME280;32098;49.448;7.904;2022-11-15T15:15:41;97161.81;;;11.62;68.58
46392;BME280;32098;49.448;7.904;2022-11-15T15:18:07;97147.06;;;11.49;68.44
46392;BME280;32098;49.448;7.904;2022-11-15T15:20:35;97151.31;;;11.45;68.50
46392;BME280;32098;49.448;7.904;2022-11-15T15:23:03;97149.19;;;11.47;68.57
46392;BME280;32098;49.448;7.904;2022-11-15T15:25:32;97144.38;;;11.44;69.09
46392;BME280;32098;49.448;7.904;2022-11-15T15:27:59;97143.31;;;11.50;68.47
46392;BME280;32098;49.448;7.904;2022-11-15T15:30:29;97138.50;;;11.47;68.60
46392;BME280;32098;49.448;7.904;2022-11-15T15:32:56;97144.09;;;11.51;68.15
46392;BME280;32098;49.448;7.904;2022-11-15T15:35:22;97138.50;;;11.47;68.92
46392;BME280;32098;49.448;7.904;2022-11-15T15:37:49;97138.72;;;11.41;68.57
46392;BME280;32098;49.448;7.904;2022-11-15T15:40:20;97139.72;;;11.30;68.96
46392;BME280;32098;49.448;7.904;2022-11-15T15:42:47;97132.31;;;11.37;68.61
46392;BME280;32098;49.448;7.904;2022-11-15T15:45:15;97135.16;;;11.25;68.40
46392;BME280;32098;49.448;7.904;2022-11-15T15:47:42;97134.13;;;11.31;68.61
46392;BME280;32098;49.448;7.904;2022-11-15T15:50:24;97130.88;;;11.24;68.31
46392;BME280;32098;49.448;7.904;2022-11-15T15:52:52;97122.31;;;11.22;68.56
46392;BME280;32098;49.448;7.904;2022-11-15T15:55:19;97122.84;;;11.24;68.30
46392;BME280;32098;49.448;7.904;2022-11-15T15:57:46;97117.81;;;11.28;68.47
46392;BME280;32098;49.448;7.904;2022-11-15T16:00:14;97115.09;;;11.18;68.29
46392;BME280;32098;49.448;7.904;2022-11-15T16:02:41;97099.53;;;11.09;68.63
46392;BME280;32098;49.448;7.904;2022-11-15T16:05:08;97110.22;;;11.09;68.82
46392;BME280;32098;49.448;7.904;2022-11-15T16:07:35;97106.25;;;11.17;68.56
46392;BME280;32098;49.448;7.904;2022-11-15T16:10:23;97108.84;;;11.02;68.91
46392;BME280;32098;49.448;7.904;2022-11-15T16:12:52;97093.84;;;10.96;69.06
46392;BME280;32098;49.448;7.904;2022-11-15T16:15:20;97103.78;;;11.05;69.13
46392;BME280;32098;49.448;7.904;2022-11-15T16:17:50;97084.22;;;10.90;68.98
46392;BME280;32098;49.448;7.904;2022-11-15T16:23:07;97081.63;;;11.05;69.10
46392;BME280;32098;49.448;7.904;2022-11-15T16:25:49;97082.13;;;11.02;69.18
46392;BME280;32098;49.448;7.904;2022-11-15T16:28:22;97085.31;;;10.99;69.42
46392;BME280;32098;49.448;7.904;2022-11-15T16:30:58;97062.25;;;10.83;69.55
46392;BME280;32098;49.448;7.904;2022-11-15T16:33:26;97080.50;;;10.96;69.58
46392;BME280;32098;49.448;7.904;2022-11-15T16:35:52;97079.47;;;11.02;69.81